createdAt,value
2022-08-26T00:00:27.379Z,100345.31
2022-08-26T00:01:31.826Z,100337.50
2022-08-26T00:02:36.251Z,100337.78
2022-08-26T00:03:39.322Z,100339.78
2022-08-26T00:04:44.526Z,100327.53
2022-08-26T00:05:46.569Z,100341.31
2022-08-26T00:06:50.962Z,100330.78
2022-08-26T00:07:53.542Z,100345.41
2022-08-26T00:08:58.033Z,100332.09
2022-08-26T00:09:59.813Z,100322.44
2022-08-26T00:11:06.631Z,100328.09
2022-08-26T00:12:12.096Z,100317.59
2022-08-26T00:13:19.483Z,100316.03
2022-08-26T00:14:21.938Z,100324.13
2022-08-26T00:15:27.142Z,100327.84
2022-08-26T00:16:29.585Z,100321.72
2022-08-26T00:17:34.133Z,100328.97
2022-08-26T00:18:38.609Z,100321.72
2022-08-26T00:19:42.707Z,100328.13
2022-08-26T00:20:47.243Z,100328.13
2022-08-26T00:21:50.016Z,100325.41
2022-08-26T00:22:54.406Z,100323.00
2022-08-26T00:23:56.221Z,100320.31
2022-08-26T00:25:00.694Z,100320.31
2022-08-26T00:26:02.958Z,100322.00
2022-08-26T00:27:07.390Z,100321.28
2022-08-26T00:28:09.292Z,100316.88
2022-08-26T00:29:15.268Z,100319.84
2022-08-26T00:30:25.016Z,100318.19
2022-08-26T00:31:28.803Z,100309.38
2022-08-26T00:32:35.848Z,100314.06
2022-08-26T00:33:39.835Z,100309.66
2022-08-26T00:34:44.222Z,100298.72
2022-08-26T00:35:46.663Z,100307.38
2022-08-26T00:36:52.185Z,100304.81
2022-08-26T00:37:54.532Z,100304.13
2022-08-26T00:38:59.270Z,100305.09
2022-08-26T00:40:01.249Z,100299.13
2022-08-26T00:41:09.683Z,100291.19
2022-08-26T00:42:11.486Z,100300.25
2022-08-26T00:43:16.131Z,100296.84
2022-08-26T00:44:18.271Z,100303.22
2022-08-26T00:45:22.798Z,100302.53
2022-08-26T00:46:29.308Z,100293.59
2022-08-26T00:47:35.498Z,100297.16
2022-08-26T00:48:42.307Z,100302.53
2022-08-26T00:49:44.874Z,100298.00
2022-08-26T00:50:54.866Z,100300.84
2022-08-26T00:51:57.597Z,100297.44
2022-08-26T00:53:05.117Z,100301.81
2022-08-26T00:54:10.805Z,100308.22
2022-08-26T00:55:20.416Z,100306.38
2022-08-26T00:56:46.991Z,100299.41
2022-08-26T00:57:51.835Z,100305.66
2022-08-26T00:58:54.120Z,100301.13
2022-08-26T00:59:59.643Z,100300.25
2022-08-26T01:01:01.781Z,100304.78
2022-08-26T01:02:06.471Z,100299.41
2022-08-26T01:03:19.882Z,100299.41
2022-08-26T01:04:26.108Z,100296.84
2022-08-26T01:05:28.475Z,100298.69
2022-08-26T01:06:34.963Z,100296.00
2022-08-26T01:07:37.079Z,100306.78
2022-08-26T01:08:41.463Z,100294.28
2022-08-26T01:09:43.872Z,100298.81
2022-08-26T01:10:48.818Z,100303.34
2022-08-26T01:11:53.558Z,100292.75
2022-08-26T01:12:59.882Z,100305.38
2022-08-26T01:14:02.681Z,100300.84
2022-08-26T01:15:07.718Z,100299.25
2022-08-26T01:16:12.504Z,100297.56
2022-08-26T01:17:16.982Z,100295.97
2022-08-26T01:18:18.784Z,100293.41
2022-08-26T01:19:25.606Z,100299.66
2022-08-26T01:20:39.202Z,100297.09
2022-08-26T01:21:45.094Z,100296.56
2022-08-26T01:22:50.520Z,100286.91
2022-08-26T01:23:57.649Z,100283.47
2022-08-26T01:25:03.684Z,100281.06
2022-08-26T01:26:08.540Z,100280.19
2022-08-26T01:27:24.555Z,100284.03
2022-08-26T01:28:30.252Z,100288.56
2022-08-26T01:29:32.505Z,100285.19
2022-08-26T01:30:37.175Z,100283.59
2022-08-26T01:31:41.853Z,100277.47
2022-08-26T01:32:46.321Z,100279.44
2022-08-26T01:33:52.067Z,100278.44
2022-08-26T01:34:57.302Z,100274.03
2022-08-26T01:36:00.151Z,100268.66
2022-08-26T01:37:06.991Z,100270.50
2022-08-26T01:38:09.538Z,100271.50
2022-08-26T01:39:13.957Z,100267.94
2022-08-26T01:40:17.375Z,100265.25
2022-08-26T01:41:27.354Z,100270.63
2022-08-26T01:42:30.855Z,100260.16
2022-08-26T01:43:35.283Z,100243.38
2022-08-26T01:44:40.355Z,100265.69
2022-08-26T01:45:45.192Z,100260.44
2022-08-26T01:46:47.138Z,100265.09
2022-08-26T01:47:57.197Z,100258.00
2022-08-26T01:49:00.453Z,100262.66
2022-08-26T01:50:05.995Z,100260.97
2022-08-26T01:51:07.994Z,100263.78
2022-08-26T01:52:13.384Z,100259.56
2022-08-26T01:53:15.769Z,100264.94
2022-08-26T01:54:20.585Z,100252.31
2022-08-26T01:55:32.602Z,100257.00
2022-08-26T01:56:38.397Z,100254.44
2022-08-26T01:57:40.477Z,100252.59
2022-08-26T01:58:51.983Z,100254.44
2022-08-26T01:59:54.874Z,100252.72
2022-08-26T02:00:59.637Z,100245.63
2022-08-26T02:02:01.680Z,100248.19
2022-08-26T02:03:22.316Z,100231.75
2022-08-26T02:04:34.341Z,100241.94
2022-08-26T02:05:40.097Z,100230.03
2022-08-26T02:06:41.934Z,100231.19
2022-08-26T02:07:46.494Z,100231.19
2022-08-26T02:08:49.891Z,100238.28
2022-08-26T02:09:54.636Z,100231.19
2022-08-26T02:10:56.463Z,100231.19
2022-08-26T02:12:02.851Z,100235.56
2022-08-26T02:13:25.447Z,100233.88
2022-08-26T02:14:32.031Z,100235.72
2022-08-26T02:15:34.558Z,100231.19
2022-08-26T02:16:42.144Z,100229.59
2022-08-26T02:17:44.905Z,100226.91
2022-08-26T02:18:49.322Z,100226.06
2022-08-26T02:19:54.691Z,100231.44
2022-08-26T02:20:59.179Z,100228.75
2022-08-26T02:22:01.839Z,100236.13
2022-08-26T02:23:08.776Z,100244.19
2022-08-26T02:24:15.690Z,100240.50
2022-08-26T02:25:35.017Z,100234.28
2022-08-26T02:26:36.901Z,100231.75
2022-08-26T02:27:43.605Z,100230.88
2022-08-26T02:28:47.482Z,100244.19
2022-08-26T02:29:52.486Z,100242.50
2022-08-26T02:30:55.657Z,100228.88
2022-08-26T02:32:00.193Z,100242.78
2022-08-26T02:33:03.701Z,100242.78
2022-08-26T02:34:15.298Z,100241.06
2022-08-26T02:35:20.023Z,100246.47
2022-08-26T02:36:28.674Z,100246.47
2022-08-26T02:37:31.542Z,100244.75
2022-08-26T02:38:35.967Z,100250.13
2022-08-26T02:39:39.995Z,100248.44
2022-08-26T02:40:44.529Z,100241.34
2022-08-26T02:41:47.008Z,100243.03
2022-08-26T02:42:53.114Z,100242.19
2022-08-26T02:43:57.954Z,100243.03
2022-08-26T02:45:02.689Z,100246.59
2022-08-26T02:46:07.482Z,100244.75
2022-08-26T02:47:09.825Z,100243.03
2022-08-26T02:48:19.317Z,100241.34
2022-08-26T02:49:21.410Z,100219.19
2022-08-26T02:50:26.416Z,100248.44
2022-08-26T02:51:28.342Z,100238.50
2022-08-26T02:52:32.810Z,100238.66
2022-08-26T02:53:38.374Z,100238.66
2022-08-26T02:54:40.962Z,100234.25
2022-08-26T02:55:49.465Z,100245.00
2022-08-26T02:56:51.803Z,100230.56
2022-08-26T02:57:56.198Z,100225.19
2022-08-26T02:58:58.000Z,100225.19
2022-08-26T03:00:02.747Z,100229.59
2022-08-26T03:01:05.332Z,100222.34
2022-08-26T03:02:10.794Z,100212.44
2022-08-26T03:03:12.756Z,100211.59
2022-08-26T03:04:17.206Z,100218.53
2022-08-26T03:05:19.901Z,100214.16
2022-08-26T03:06:24.795Z,100215.84
2022-08-26T03:07:30.975Z,100208.63
2022-08-26T03:08:35.522Z,100211.31
2022-08-26T03:09:37.366Z,100207.63
2022-08-26T03:10:41.947Z,100206.78
2022-08-26T03:11:43.774Z,100206.78
2022-08-26T03:12:48.281Z,100202.38
2022-08-26T03:13:50.166Z,100211.31
2022-08-26T03:14:54.641Z,100211.31
2022-08-26T03:15:56.865Z,100210.47
2022-08-26T03:17:01.352Z,100220.38
2022-08-26T03:18:03.161Z,100219.53
2022-08-26T03:19:08.200Z,100222.34
2022-08-26T03:20:10.108Z,100222.50
2022-08-26T03:21:15.814Z,100221.78
2022-08-26T03:22:20.131Z,100221.78
2022-08-26T03:23:25.268Z,100224.59
2022-08-26T03:24:27.223Z,100211.84
2022-08-26T03:25:33.478Z,100231.13
2022-08-26T03:26:35.456Z,100220.63
2022-08-26T03:27:41.202Z,100224.31
2022-08-26T03:28:59.681Z,100229.09
2022-08-26T03:30:16.568Z,100227.41
2022-08-26T03:31:21.019Z,100223.16
2022-08-26T03:32:26.968Z,100225.13
2022-08-26T03:33:31.662Z,100230.78
2022-08-26T03:34:33.652Z,100226.38
2022-08-26T03:35:38.076Z,100229.34
2022-08-26T03:36:43.957Z,100231.28
2022-08-26T03:37:45.987Z,100228.78
2022-08-26T03:38:50.820Z,100225.22
2022-08-26T03:39:52.725Z,100229.88
2022-08-26T03:40:57.190Z,100231.84
2022-08-26T03:41:59.095Z,100230.16
2022-08-26T03:43:03.941Z,100224.75
2022-08-26T03:44:06.402Z,100219.38
2022-08-26T03:45:12.089Z,100214.59
2022-08-26T03:46:14.258Z,100210.06
2022-08-26T03:47:18.719Z,100210.78
2022-08-26T03:48:20.515Z,100212.47
2022-08-26T03:49:25.583Z,100221.13
2022-08-26T03:50:31.180Z,100208.25
2022-08-26T03:51:39.551Z,100221.59
2022-08-26T03:52:44.274Z,100219.44
2022-08-26T03:53:49.230Z,100219.19
2022-08-26T03:54:51.048Z,100218.06
2022-08-26T03:55:55.815Z,100226.72
2022-08-26T03:56:57.621Z,100232.66
2022-08-26T03:58:02.492Z,100236.94
2022-08-26T03:59:04.903Z,100230.16
2022-08-26T04:00:15.330Z,100242.22
2022-08-26T04:01:20.406Z,100243.66
2022-08-26T04:02:25.656Z,100254.88
2022-08-26T04:03:42.894Z,100241.84
2022-08-26T04:04:47.292Z,100254.59
2022-08-26T04:05:51.813Z,100256.75
2022-08-26T04:06:59.102Z,100254.38
2022-08-26T04:08:00.884Z,100253.00
2022-08-26T04:09:07.165Z,100253.97
2022-08-26T04:10:09.324Z,100268.19
2022-08-26T04:11:19.017Z,100263.09
2022-08-26T04:12:21.097Z,100286.06
2022-08-26T04:13:25.519Z,100288.53
2022-08-26T04:14:31.282Z,100313.72
2022-08-26T04:15:34.366Z,100323.72
2022-08-26T04:16:39.014Z,100347.34
2022-08-26T04:17:40.991Z,100360.16
2022-08-26T04:18:46.664Z,100367.81
2022-08-26T04:19:51.371Z,100380.63
2022-08-26T04:20:53.186Z,100394.22
2022-08-26T04:21:57.691Z,100388.00
2022-08-26T04:22:59.524Z,100407.66
2022-08-26T04:24:03.984Z,100415.94
2022-08-26T04:25:06.795Z,100422.19
2022-08-26T04:26:11.311Z,100429.75
2022-08-26T04:27:13.102Z,100444.44
2022-08-26T04:28:17.562Z,100432.09
2022-08-26T04:29:20.855Z,100453.88
2022-08-26T04:30:25.467Z,100452.38
2022-08-26T04:31:27.451Z,100455.41
2022-08-26T04:32:35.316Z,100459.59
2022-08-26T04:33:41.824Z,100450.69
2022-08-26T04:34:46.428Z,100452.19
2022-08-26T04:35:48.490Z,100453.91
2022-08-26T04:36:53.299Z,100448.50
2022-08-26T04:37:55.527Z,100448.53
2022-08-26T04:38:59.975Z,100459.25
2022-08-26T04:40:04.465Z,100454.59
2022-08-26T04:41:14.942Z,100455.88
2022-08-26T04:42:23.319Z,100454.47
2022-08-26T04:43:30.704Z,100448.34
2022-08-26T04:44:35.098Z,100439.97
2022-08-26T04:45:37.532Z,100448.22
2022-08-26T04:46:43.875Z,100437.16
2022-08-26T04:47:48.710Z,100432.22
2022-08-26T04:48:51.903Z,100434.56
2022-08-26T04:50:00.216Z,100432.88
2022-08-26T04:51:04.671Z,100433.19
2022-08-26T04:52:09.849Z,100430.31
2022-08-26T04:53:12.214Z,100429.16
2022-08-26T04:54:16.626Z,100421.72
2022-08-26T04:55:20.414Z,100423.38
2022-08-26T04:56:30.486Z,100423.38
2022-08-26T04:57:33.774Z,100419.66
2022-08-26T04:58:39.281Z,100415.44
2022-08-26T04:59:41.130Z,100418.31
2022-08-26T05:00:49.210Z,100420.88
2022-08-26T05:01:51.738Z,100413.38
2022-08-26T05:02:56.188Z,100422.91
2022-08-26T05:03:58.400Z,100417.34
2022-08-26T05:05:02.913Z,100398.50
2022-08-26T05:06:05.440Z,100415.34
2022-08-26T05:07:10.566Z,100402.16
2022-08-26T05:08:13.123Z,100407.28
2022-08-26T05:09:18.595Z,100401.88
2022-08-26T05:10:20.515Z,100403.97
2022-08-26T05:11:25.001Z,100409.03
2022-08-26T05:12:27.891Z,100405.03
2022-08-26T05:13:32.334Z,100411.81
2022-08-26T05:14:36.170Z,100418.28
2022-08-26T05:15:41.441Z,100419.31
2022-08-26T05:16:45.867Z,100408.13
2022-08-26T05:17:50.659Z,100411.22
2022-08-26T05:18:56.099Z,100407.81
2022-08-26T05:19:58.442Z,100420.91
2022-08-26T05:21:03.342Z,100425.00
2022-08-26T05:22:06.553Z,100423.47
2022-08-26T05:23:10.991Z,100436.03
2022-08-26T05:24:37.495Z,100427.53
2022-08-26T05:25:43.513Z,100432.47
2022-08-26T05:26:48.406Z,100438.41
2022-08-26T05:27:50.359Z,100446.25
2022-08-26T05:28:55.337Z,100445.38
2022-08-26T05:29:57.635Z,100445.06
2022-08-26T05:31:02.181Z,100442.19
2022-08-26T05:32:04.809Z,100449.13
2022-08-26T05:33:10.147Z,100453.38
2022-08-26T05:34:14.734Z,100451.34
2022-08-26T05:35:17.710Z,100456.44
2022-08-26T05:36:23.152Z,100458.16
2022-08-26T05:37:25.008Z,100455.09
2022-08-26T05:38:30.238Z,100465.81
2022-08-26T05:39:32.827Z,100461.91
2022-08-26T05:40:38.725Z,100464.31
2022-08-26T05:41:44.763Z,100456.81
2022-08-26T05:42:47.561Z,100461.22
2022-08-26T05:43:52.288Z,100456.47
2022-08-26T05:44:56.166Z,100460.88
2022-08-26T05:46:07.801Z,100454.09
2022-08-26T05:47:12.557Z,100458.69
2022-08-26T05:48:15.275Z,100462.09
2022-08-26T05:49:20.567Z,100452.06
2022-08-26T05:50:28.021Z,100462.94
2022-08-26T05:51:33.008Z,100457.34
2022-08-26T05:52:34.859Z,100459.22
2022-08-26T05:53:40.202Z,100458.19
2022-08-26T05:54:48.238Z,100453.59
2022-08-26T05:55:51.462Z,100463.44
2022-08-26T05:56:55.909Z,100455.81
2022-08-26T05:57:57.719Z,100462.94
2022-08-26T05:59:03.730Z,100470.41
2022-08-26T06:00:06.740Z,100464.97
2022-08-26T06:01:17.818Z,100452.91
2022-08-26T06:02:20.018Z,100458.84
2022-08-26T06:03:24.933Z,100458.50
2022-08-26T06:04:29.526Z,100462.25
2022-08-26T06:05:35.380Z,100456.97
2022-08-26T06:06:43.039Z,100455.47
2022-08-26T06:08:01.875Z,100469.72
2022-08-26T06:09:07.219Z,100462.56
2022-08-26T06:10:32.659Z,100458.50
2022-08-26T06:11:37.460Z,100461.59
2022-08-26T06:12:39.423Z,100452.88
2022-08-26T06:13:44.737Z,100463.59
2022-08-26T06:14:46.680Z,100473.13
2022-08-26T06:15:56.164Z,100459.84
2022-08-26T06:17:00.900Z,100466.47
2022-08-26T06:18:03.087Z,100460.03
2022-08-26T06:19:10.793Z,100470.03
2022-08-26T06:20:13.136Z,100466.97
2022-08-26T06:21:18.826Z,100461.72
2022-08-26T06:22:35.926Z,100471.53
2022-08-26T06:23:53.061Z,100476.13
2022-08-26T06:25:10.137Z,100469.88
2022-08-26T06:26:14.903Z,100472.56
2022-08-26T06:27:16.739Z,100472.72
2022-08-26T06:28:21.879Z,100477.13
2022-08-26T06:29:25.497Z,100475.22
2022-08-26T06:30:29.889Z,100472.31
2022-08-26T06:31:32.394Z,100487.97
2022-08-26T06:32:37.423Z,100483.84
2022-08-26T06:33:39.251Z,100485.19
2022-08-26T06:34:44.476Z,100494.00
2022-08-26T06:35:47.078Z,100484.75
2022-08-26T06:36:53.686Z,100488.16
2022-08-26T06:37:56.191Z,100499.41
2022-08-26T06:39:02.653Z,100491.88
2022-08-26T06:40:04.980Z,100497.25
2022-08-26T06:41:12.066Z,100497.19
2022-08-26T06:42:13.907Z,100497.84
2022-08-26T06:43:20.088Z,100492.00
2022-08-26T06:44:23.359Z,100497.44
2022-08-26T06:45:27.869Z,100498.38
2022-08-26T06:46:30.581Z,100498.69
2022-08-26T06:47:35.033Z,100500.41
2022-08-26T06:48:37.549Z,100503.41
2022-08-26T06:49:41.959Z,100500.50
2022-08-26T06:50:49.972Z,100497.69
2022-08-26T06:51:51.827Z,100500.69
2022-08-26T06:52:56.282Z,100501.25
2022-08-26T06:54:02.252Z,100504.28
2022-08-26T06:55:05.627Z,100502.72
2022-08-26T06:56:11.993Z,100506.66
2022-08-26T06:57:14.312Z,100503.56
2022-08-26T06:58:21.143Z,100505.16
2022-08-26T06:59:24.066Z,100510.94
2022-08-26T07:00:28.520Z,100506.31
2022-08-26T07:01:31.790Z,100519.41
2022-08-26T07:02:36.833Z,100510.19
2022-08-26T07:03:39.744Z,100506.50
2022-08-26T07:04:44.522Z,100510.56
2022-08-26T07:05:52.365Z,100509.53
2022-08-26T07:06:55.503Z,100514.16
2022-08-26T07:08:00.367Z,100507.97
2022-08-26T07:09:04.263Z,100513.03
2022-08-26T07:10:09.327Z,100515.72
2022-08-26T07:11:12.015Z,100516.47
2022-08-26T07:12:17.689Z,100505.00
2022-08-26T07:13:30.563Z,100512.63
2022-08-26T07:14:36.550Z,100514.13
2022-08-26T07:15:44.683Z,100511.41
2022-08-26T07:16:49.599Z,100509.59
2022-08-26T07:17:51.414Z,100517.03
2022-08-26T07:18:56.172Z,100507.03
2022-08-26T07:20:03.205Z,100511.09
2022-08-26T07:21:07.627Z,100511.84
2022-08-26T07:22:12.134Z,100509.69
2022-08-26T07:23:16.632Z,100510.06
2022-08-26T07:24:19.140Z,100512.03
2022-08-26T07:25:25.428Z,100499.75
2022-08-26T07:26:28.646Z,100509.13
2022-08-26T07:27:33.813Z,100506.00
2022-08-26T07:28:35.907Z,100511.34
2022-08-26T07:29:42.425Z,100516.91
2022-08-26T07:30:44.374Z,100521.97
2022-08-26T07:31:48.789Z,100516.44
2022-08-26T07:32:50.628Z,100516.59
2022-08-26T07:33:55.796Z,100516.06
2022-08-26T07:35:01.002Z,100513.34
2022-08-26T07:36:04.167Z,100524.75
2022-08-26T07:37:09.079Z,100515.28
2022-08-26T07:38:11.235Z,100518.97
2022-08-26T07:39:17.297Z,100516.94
2022-08-26T07:40:19.287Z,100520.41
2022-08-26T07:41:25.566Z,100511.22
2022-08-26T07:42:30.026Z,100521.56
2022-08-26T07:43:32.238Z,100514.28
2022-08-26T07:44:36.635Z,100515.97
2022-08-26T07:45:41.038Z,100510.53
2022-08-26T07:46:44.149Z,100518.19
2022-08-26T07:47:48.752Z,100513.97
2022-08-26T07:48:53.509Z,100515.09
2022-08-26T07:49:58.437Z,100513.03
2022-08-26T07:51:00.405Z,100507.81
2022-08-26T07:52:05.654Z,100511.59
2022-08-26T07:53:08.899Z,100509.97
2022-08-26T07:54:15.401Z,100504.94
2022-08-26T07:55:20.251Z,100515.13
2022-08-26T07:56:23.348Z,100511.72
2022-08-26T07:57:28.361Z,100504.38
2022-08-26T07:58:31.128Z,100502.13
2022-08-26T07:59:35.523Z,100509.28
2022-08-26T08:00:37.471Z,100508.50
2022-08-26T08:01:44.782Z,100499.84
2022-08-26T08:02:47.087Z,100503.72
2022-08-26T08:03:51.932Z,100506.25
2022-08-26T08:04:54.702Z,100501.66
2022-08-26T08:05:59.871Z,100509.03
2022-08-26T08:07:01.940Z,100508.25
2022-08-26T08:08:19.684Z,100508.28
2022-08-26T08:09:31.862Z,100504.09
2022-08-26T08:10:34.326Z,100510.88
2022-08-26T08:11:41.694Z,100507.53
2022-08-26T08:12:47.611Z,100505.44
2022-08-26T08:13:50.089Z,100508.22
2022-08-26T08:15:01.150Z,100506.78
2022-08-26T08:16:05.755Z,100507.22
2022-08-26T08:17:07.781Z,100508.28
2022-08-26T08:18:15.798Z,100505.53
2022-08-26T08:19:20.478Z,100511.44
2022-08-26T08:20:23.810Z,100502.38
2022-08-26T08:21:29.025Z,100507.66
2022-08-26T08:22:32.549Z,100510.19
2022-08-26T08:23:37.341Z,100499.19
2022-08-26T08:24:40.042Z,100497.97
2022-08-26T08:25:44.780Z,100505.75
2022-08-26T08:26:47.290Z,100499.22
2022-08-26T08:27:52.112Z,100501.31
2022-08-26T08:28:54.724Z,100500.06
2022-08-26T08:29:59.246Z,100508.97
2022-08-26T08:31:02.291Z,100503.84
2022-08-26T08:32:11.419Z,100499.22
2022-08-26T08:33:13.477Z,100497.53
2022-08-26T08:34:18.364Z,100490.75
2022-08-26T08:35:21.603Z,100494.75
2022-08-26T08:36:26.054Z,100489.88
2022-08-26T08:37:37.672Z,100494.13
2022-08-26T08:38:42.355Z,100494.13
2022-08-26T08:39:45.547Z,100490.53
2022-08-26T08:40:49.949Z,100492.84
2022-08-26T08:41:54.811Z,100488.59
2022-08-26T08:43:00.623Z,100487.31
2022-08-26T08:44:02.645Z,100495.78
2022-08-26T08:45:15.424Z,100474.00
2022-08-26T08:46:19.577Z,100486.44
2022-08-26T08:47:29.136Z,100483.91
2022-08-26T08:48:34.748Z,100489.19
2022-08-26T08:49:36.575Z,100486.00
2022-08-26T08:50:48.076Z,100487.25
2022-08-26T08:51:54.419Z,100491.25
2022-08-26T08:53:11.176Z,100486.38
2022-08-26T08:54:13.068Z,100487.19
2022-08-26T08:55:18.327Z,100496.91
2022-08-26T08:56:23.686Z,100486.25
2022-08-26T08:57:41.107Z,100491.75
2022-08-26T08:59:03.505Z,100483.69
2022-08-26T09:00:09.235Z,100486.63
2022-08-26T09:01:16.616Z,100486.63
2022-08-26T09:02:21.463Z,100483.25
2022-08-26T09:03:44.715Z,100486.78
2022-08-26T09:04:51.740Z,100488.69
2022-08-26T09:05:58.886Z,100487.44
2022-08-26T09:07:02.059Z,100483.19
2022-08-26T09:08:20.780Z,100485.31
2022-08-26T09:09:24.102Z,100476.41
2022-08-26T09:10:31.518Z,100485.25
2022-08-26T09:11:35.894Z,100486.50
2022-08-26T09:12:38.012Z,100488.34
2022-08-26T09:13:42.399Z,100488.75
2022-08-26T09:14:44.719Z,100483.88
2022-08-26T09:16:08.328Z,100485.94
2022-08-26T09:17:17.526Z,100487.63
2022-08-26T09:18:57.705Z,100480.81
2022-08-26T09:20:05.916Z,100484.13
2022-08-26T09:21:11.746Z,100468.81
2022-08-26T09:22:27.835Z,100482.09
2022-08-26T09:23:32.692Z,100480.13
2022-08-26T09:24:42.030Z,100484.13
2022-08-26T09:27:37.604Z,100484.75
2022-08-26T09:28:40.415Z,100482.13
2022-08-26T09:29:50.377Z,100478.31
2022-08-26T09:31:08.026Z,100473.19
2022-08-26T09:32:16.139Z,100478.63
2022-08-26T09:33:21.231Z,100486.00
2022-08-26T09:34:30.150Z,100486.34
2022-08-26T09:35:33.339Z,100477.53
2022-08-26T09:36:39.655Z,100470.84
2022-08-26T09:39:26.734Z,100465.22
2022-08-26T09:40:35.505Z,100480.97
2022-08-26T09:41:38.751Z,100476.38
2022-08-26T09:42:43.250Z,100458.13
2022-08-26T09:43:51.909Z,100452.84
2022-08-26T09:45:03.861Z,100472.38
2022-08-26T09:46:21.323Z,100474.91
2022-08-26T09:47:48.333Z,100469.31
2022-08-26T09:48:53.045Z,100470.53
2022-08-26T09:50:20.722Z,100464.56
2022-08-26T09:51:23.211Z,100461.94
2022-08-26T09:52:27.957Z,100473.34
2022-08-26T09:53:32.460Z,100468.91
2022-08-26T09:54:38.098Z,100462.69
2022-08-26T09:55:44.068Z,100469.41
2022-08-26T09:56:46.578Z,100468.09
2022-08-26T09:57:55.010Z,100469.78
2022-08-26T09:58:59.738Z,100468.09
2022-08-26T10:00:02.590Z,100474.03
2022-08-26T10:01:27.337Z,100472.59
2022-08-26T10:02:32.029Z,100461.66
2022-08-26T10:03:37.794Z,100476.06
2022-08-26T10:04:39.694Z,100465.50
2022-08-26T10:05:47.673Z,100468.25
2022-08-26T10:07:08.329Z,100474.91
2022-08-26T10:08:20.719Z,100462.75
2022-08-26T10:09:28.059Z,100458.75
2022-08-26T10:10:32.832Z,100460.44
2022-08-26T10:11:41.305Z,100456.84
2022-08-26T10:12:46.575Z,100462.28
2022-08-26T10:13:54.033Z,100464.22
2022-08-26T10:14:56.943Z,100459.31
2022-08-26T10:16:03.884Z,100461.34
2022-08-26T10:17:07.523Z,100464.59
2022-08-26T10:18:18.751Z,100455.69
2022-08-26T10:19:21.705Z,100461.06
2022-08-26T10:20:27.457Z,100463.44
2022-08-26T10:21:33.279Z,100453.63
2022-08-26T10:22:52.833Z,100454.47
2022-08-26T10:23:56.200Z,100462.13
2022-08-26T10:25:01.036Z,100455.59
2022-08-26T10:26:07.097Z,100454.31
2022-08-26T10:27:34.063Z,100459.13
2022-08-26T10:28:52.987Z,100465.19
2022-08-26T10:29:58.205Z,100451.53
2022-08-26T10:31:01.695Z,100456.75
2022-08-26T10:32:13.819Z,100448.75
2022-08-26T10:33:18.097Z,100454.38
2022-08-26T10:34:22.771Z,100449.34
2022-08-26T10:35:27.079Z,100451.53
2022-08-26T10:37:10.812Z,100454.31
2022-08-26T10:38:12.191Z,100455.06
2022-08-26T10:39:15.344Z,100449.72
2022-08-26T10:40:27.838Z,100457.78
2022-08-26T10:41:32.339Z,100447.47
2022-08-26T10:42:38.799Z,100449.38
2022-08-26T10:43:41.005Z,100449.16
2022-08-26T10:44:45.543Z,100443.53
2022-08-26T10:45:57.309Z,100446.53
2022-08-26T10:47:00.521Z,100453.13
2022-08-26T10:48:11.000Z,100450.38
2022-08-26T10:49:17.371Z,100450.75
2022-08-26T10:50:19.583Z,100452.31
2022-08-26T10:51:27.617Z,100447.16
2022-08-26T10:52:50.918Z,100450.88
2022-08-26T10:53:58.018Z,100446.41
2022-08-26T10:55:03.104Z,100450.88
2022-08-26T10:56:18.757Z,100447.16
2022-08-26T10:57:23.726Z,100447.75
2022-08-26T10:58:26.171Z,100447.75
2022-08-26T10:59:49.995Z,100446.41
2022-08-26T11:01:11.840Z,100442.22
2022-08-26T11:02:25.000Z,100442.22
2022-08-26T11:03:41.646Z,100433.81
2022-08-26T11:04:48.484Z,100441.50
2022-08-26T11:06:11.798Z,100442.00
2022-08-26T11:07:35.467Z,100437.19
2022-08-26T11:08:39.907Z,100437.19
2022-08-26T11:09:45.546Z,100434.41
2022-08-26T11:11:00.775Z,100441.16
2022-08-26T11:12:10.312Z,100430.34
2022-08-26T11:13:15.034Z,100430.91
2022-08-26T11:14:29.012Z,100426.38
2022-08-26T11:15:34.175Z,100434.44
2022-08-26T11:16:36.185Z,100435.28
2022-08-26T11:17:47.423Z,100428.53
2022-08-26T11:18:55.897Z,100428.16
2022-08-26T11:20:01.537Z,100422.13
2022-08-26T11:21:18.730Z,100429.47
2022-08-26T11:22:33.050Z,100420.34
2022-08-26T11:23:38.990Z,100413.75
2022-08-26T11:24:45.779Z,100424.41
2022-08-26T11:25:59.024Z,100410.59
2022-08-26T11:27:01.663Z,100415.06
2022-08-26T11:28:06.981Z,100416.59
2022-08-26T11:29:13.264Z,100415.06
2022-08-26T11:30:19.570Z,100417.31
2022-08-26T11:31:27.114Z,100412.75
2022-08-26T11:32:35.304Z,100408.09
2022-08-26T11:33:48.820Z,100401.56
2022-08-26T11:35:00.474Z,100414.56
2022-08-26T11:36:11.961Z,100409.53
2022-08-26T11:37:16.984Z,100407.47
2022-08-26T11:38:20.938Z,100411.56
2022-08-26T11:39:36.634Z,100405.69
2022-08-26T11:40:40.548Z,100410.72
2022-08-26T11:41:52.904Z,100403.16
2022-08-26T11:43:01.025Z,100403.16
2022-08-26T11:44:07.181Z,100403.88
2022-08-26T11:45:18.060Z,100402.09
2022-08-26T11:46:27.828Z,100397.97
2022-08-26T11:47:33.932Z,100398.47
2022-08-26T11:48:40.559Z,100393.56
2022-08-26T11:49:45.212Z,100390.19
2022-08-26T11:50:54.023Z,100392.94
2022-08-26T11:52:20.813Z,100399.09
2022-08-26T11:53:23.371Z,100391.25
2022-08-26T11:54:35.693Z,100392.09
2022-08-26T11:55:41.884Z,100394.50
2022-08-26T11:56:47.737Z,100384.06
2022-08-26T11:57:52.795Z,100388.97
2022-08-26T11:58:56.795Z,100382.00
2022-08-26T12:00:01.448Z,100381.41
2022-08-26T12:01:09.838Z,100389.44
2022-08-26T12:02:18.038Z,100378.03
2022-08-26T12:03:27.768Z,100383.09
2022-08-26T12:04:35.926Z,100386.34
2022-08-26T12:05:42.882Z,100372.16
2022-08-26T12:06:51.051Z,100380.44
2022-08-26T12:07:55.539Z,100375.16
2022-08-26T12:08:58.817Z,100374.31
2022-08-26T12:10:04.290Z,100372.63
2022-08-26T12:11:09.657Z,100373.47
2022-08-26T12:12:14.188Z,100378.41
2022-08-26T12:13:26.649Z,100376.09
2022-08-26T12:14:28.769Z,100373.03
2022-08-26T12:15:33.775Z,100367.75
2022-08-26T12:16:37.102Z,100367.69
2022-08-26T12:17:42.224Z,100360.41
2022-08-26T12:18:44.826Z,100365.06
2022-08-26T12:19:49.440Z,100365.22
2022-08-26T12:20:54.305Z,100370.41
2022-08-26T12:22:04.333Z,100364.28
2022-08-26T12:23:06.205Z,100352.47
2022-08-26T12:24:11.187Z,100361.59
2022-08-26T12:25:15.490Z,100356.56
2022-08-26T12:26:26.662Z,100360.75
2022-08-26T12:27:31.265Z,100354.28
2022-08-26T12:28:36.001Z,100354.38
2022-08-26T12:29:37.823Z,100352.00
2022-08-26T12:30:44.362Z,100356.06
2022-08-26T12:31:46.534Z,100350.50
2022-08-26T12:32:57.792Z,100350.38
2022-08-26T12:34:04.212Z,100348.50
2022-08-26T12:35:16.593Z,100356.56
2022-08-26T12:36:23.131Z,100353.72
2022-08-26T12:37:36.941Z,100336.84